createdAt,value
2017-09-25T00:01:21.241Z,15.70
2017-09-25T00:03:49.107Z,15.10
2017-09-25T00:06:16.974Z,14.75
2017-09-25T00:08:44.841Z,17.08
2017-09-25T00:11:12.709Z,19.02
2017-09-25T00:13:40.576Z,19.55
2017-09-25T00:16:08.442Z,16.55
2017-09-25T00:18:36.313Z,18.85
2017-09-25T00:21:04.178Z,18.35
2017-09-25T00:23:32.045Z,19.17
2017-09-25T00:25:59.913Z,18.70
2017-09-25T00:28:27.780Z,17.02
2017-09-25T00:30:55.648Z,17.75
2017-09-25T00:33:23.514Z,20.17
2017-09-25T00:35:51.383Z,18.70
2017-09-25T00:38:19.249Z,20.73
2017-09-25T00:40:47.116Z,19.75
2017-09-25T00:43:14.984Z,19.40
2017-09-25T00:45:42.851Z,18.83
2017-09-25T00:48:10.719Z,21.40
2017-09-25T00:50:38.585Z,20.67
2017-09-25T00:53:18.233Z,20.08
2017-09-25T00:55:53.983Z,19.65
2017-09-25T00:58:21.952Z,20.67
2017-09-25T01:01:01.715Z,19.27
2017-09-25T01:06:28.466Z,20.02
2017-09-25T01:08:56.330Z,19.40
2017-09-25T01:11:24.195Z,18.80
2017-09-25T01:13:52.060Z,19.50
2017-09-25T01:16:19.927Z,19.05
2017-09-25T01:18:47.795Z,20.27
2017-09-25T01:21:15.663Z,19.17
2017-09-25T01:23:43.459Z,20.83
2017-09-25T01:26:11.998Z,20.60
2017-09-25T01:28:39.766Z,20.55
2017-09-25T01:31:07.481Z,20.42
2017-09-25T01:33:35.971Z,20.25
2017-09-25T01:36:03.707Z,19.55
2017-09-25T01:38:31.450Z,18.85
2017-09-25T01:40:59.165Z,21.62
2017-09-25T01:43:26.982Z,20.17
2017-09-25T01:45:54.848Z,18.80
2017-09-25T01:48:22.715Z,18.30
2017-09-25T01:50:50.582Z,18.90
2017-09-25T01:53:18.450Z,18.98
2017-09-25T01:55:46.317Z,18.25
2017-09-25T01:58:14.185Z,19.25
2017-09-25T02:00:42.052Z,17.92
2017-09-25T02:03:09.923Z,17.73
2017-09-25T02:05:37.786Z,18.50
2017-09-25T02:08:05.653Z,17.33
2017-09-25T02:10:33.495Z,17.30
2017-09-25T02:13:01.386Z,17.15
2017-09-25T02:15:29.256Z,17.37
2017-09-25T02:17:57.123Z,18.17
2017-09-25T02:20:24.989Z,18.70
2017-09-25T02:22:52.856Z,17.83
2017-09-25T02:25:20.724Z,16.90
2017-09-25T02:27:48.451Z,16.30
2017-09-25T02:30:16.180Z,17.58
2017-09-25T02:32:43.907Z,17.33
2017-09-25T02:35:11.684Z,16.60
2017-09-25T02:37:39.400Z,17.58
2017-09-25T02:40:07.125Z,17.27
2017-09-25T02:42:34.847Z,17.02
2017-09-25T02:45:02.570Z,17.73
2017-09-25T02:47:31.056Z,16.55
2017-09-25T02:49:59.529Z,17.80
2017-09-25T02:52:27.266Z,16.30
2017-09-25T02:54:54.995Z,15.85
2017-09-25T02:57:22.722Z,15.55
2017-09-25T02:59:51.211Z,13.13
2017-09-25T03:02:19.705Z,14.27
2017-09-25T03:04:48.193Z,14.57
2017-09-25T03:07:15.986Z,13.52
2017-09-25T03:09:43.707Z,14.43
2017-09-25T03:12:12.222Z,13.25
2017-09-25T03:14:39.943Z,11.90
2017-09-25T03:17:07.665Z,15.25
2017-09-25T03:19:35.399Z,15.90
2017-09-25T03:22:03.133Z,17.55
2017-09-25T03:24:30.859Z,16.12
2017-09-25T03:26:58.582Z,14.02
2017-09-25T03:29:27.079Z,16.02
2017-09-25T03:31:54.805Z,15.65
2017-09-25T03:34:22.530Z,15.15
2017-09-25T03:36:50.255Z,16.50
2017-09-25T03:39:18.755Z,16.50
2017-09-25T03:41:46.473Z,15.25
2017-09-25T03:44:14.193Z,17.17
2017-09-25T03:46:41.947Z,17.58
2017-09-25T03:49:09.669Z,15.23
2017-09-25T03:51:37.422Z,17.70
2017-09-25T03:54:05.144Z,19.23
2017-09-25T03:56:32.866Z,16.67
2017-09-25T03:59:00.599Z,17.27
2017-09-25T04:01:28.338Z,16.45
2017-09-25T04:03:56.073Z,16.85
2017-09-25T04:06:24.561Z,15.90
2017-09-25T04:08:53.051Z,12.80
2017-09-25T04:11:20.778Z,13.73
2017-09-25T04:13:48.503Z,14.32
2017-09-25T04:16:16.227Z,15.57
2017-09-25T04:18:44.714Z,14.65
2017-09-25T04:21:13.203Z,15.55
2017-09-25T04:23:40.947Z,15.48
2017-09-25T04:26:09.434Z,14.57
2017-09-25T04:28:37.937Z,12.50
2017-09-25T04:31:05.674Z,13.93
2017-09-25T04:33:34.167Z,12.73
2017-09-25T20:05:37.132Z,8.93
2017-09-25T20:08:04.990Z,8.20
2017-09-25T20:10:36.668Z,8.70
2017-09-25T20:13:04.924Z,9.40
2017-09-25T20:15:33.610Z,8.48
2017-09-25T20:18:01.481Z,8.40
2017-09-25T20:20:29.499Z,9.30
2017-09-25T20:22:57.227Z,10.05
2017-09-25T20:25:24.958Z,9.27
2017-09-25T20:27:52.855Z,9.70
2017-09-25T20:30:25.372Z,9.25
2017-09-25T20:32:54.369Z,9.45
2017-09-25T20:35:27.354Z,8.90
2017-09-25T20:37:55.578Z,9.23
2017-09-25T20:40:23.447Z,9.38
2017-09-25T20:43:08.110Z,9.32
2017-09-25T20:45:35.987Z,8.63
2017-09-25T20:48:03.843Z,10.18
2017-09-25T20:50:31.608Z,9.45
2017-09-25T20:52:59.473Z,8.75
2017-09-25T20:55:27.340Z,8.65
2017-09-25T20:57:55.207Z,9.05
2017-09-25T21:00:23.005Z,9.00
2017-09-25T21:02:51.762Z,8.80
2017-09-25T21:05:19.627Z,9.15
2017-09-25T21:07:48.315Z,10.93
2017-09-25T21:10:16.181Z,8.50
2017-09-25T21:12:44.048Z,8.98
2017-09-25T21:15:11.916Z,9.00
2017-09-25T21:17:39.787Z,8.50
2017-09-25T21:20:07.650Z,9.77
2017-09-25T21:22:35.517Z,8.80
2017-09-25T21:25:03.384Z,9.18
2017-09-25T21:27:43.028Z,9.27
2017-09-25T21:30:10.896Z,9.43
2017-09-25T21:32:38.865Z,9.80
2017-09-25T21:35:06.732Z,8.80
2017-09-25T21:37:34.600Z,9.30
2017-09-25T21:40:02.472Z,9.95
2017-09-25T21:42:30.340Z,9.52
2017-09-25T21:44:58.207Z,10.68
2017-09-25T21:47:26.069Z,9.80
2017-09-25T21:49:53.935Z,8.02
2017-09-25T21:52:21.804Z,9.20
2017-09-25T21:54:49.671Z,10.13
2017-09-25T21:57:17.538Z,10.75
2017-09-25T21:59:45.406Z,10.25
2017-09-25T22:02:13.375Z,10.45
2017-09-25T22:04:42.398Z,8.80
2017-09-25T22:07:10.176Z,10.00
2017-09-25T22:09:38.206Z,9.60
2017-09-25T22:12:06.074Z,10.35
2017-09-25T22:14:33.941Z,8.63
2017-09-25T22:17:01.807Z,9.93
2017-09-25T22:19:29.607Z,8.40
2017-09-25T22:21:58.298Z,9.30
2017-09-25T22:24:26.874Z,9.55
2017-09-25T22:26:54.594Z,10.45
2017-09-25T22:29:22.476Z,9.60
2017-09-25T22:31:50.343Z,8.65
2017-09-25T22:34:18.210Z,9.30
2017-09-25T22:36:46.080Z,9.85
2017-09-25T22:39:13.946Z,7.90
2017-09-25T22:41:41.812Z,8.30
2017-09-25T22:44:09.682Z,7.20
2017-09-25T22:46:37.546Z,8.30
2017-09-25T22:49:05.319Z,8.93
2017-09-25T22:51:33.179Z,9.80
2017-09-25T22:54:01.046Z,8.77
2017-09-25T22:56:28.913Z,8.85
2017-09-25T22:58:57.088Z,10.02
2017-09-25T23:01:24.954Z,9.07
2017-09-25T23:04:03.575Z,10.15
2017-09-25T23:06:31.442Z,9.00
2017-09-25T23:08:59.238Z,8.80
2017-09-25T23:11:46.633Z,9.57
2017-09-25T23:14:14.500Z,9.65
2017-09-25T23:16:42.367Z,8.82
2017-09-25T23:19:10.235Z,9.15
2017-09-25T23:21:38.094Z,8.80
2017-09-25T23:24:05.970Z,9.23
2017-09-25T23:26:33.836Z,8.98
2017-09-25T23:29:01.703Z,9.88
2017-09-25T23:31:47.287Z,9.13
2017-09-25T23:34:15.154Z,8.80
2017-09-25T23:36:43.022Z,10.88
2017-09-25T23:39:10.889Z,10.25
2017-09-25T23:41:38.756Z,9.43
2017-09-25T23:44:06.623Z,11.12
2017-09-25T23:46:34.490Z,12.20
2017-09-25T23:49:02.362Z,12.40
2017-09-25T23:51:30.227Z,12.90
2017-09-25T23:53:58.094Z,14.00
2017-09-25T23:56:25.817Z,12.57
2017-09-25T23:58:53.534Z,12.80
